TAP68JP LPMA-LPPT
Flight info
| Callsign | TAP68JP |
|---|---|
| Flight time | N/A |
| Altitude | 36000 |
| Route | DEGUN DCT NARTA DCT ESUTI |
| Aircraft | A320/M-SDE3FGHIRWY/LB1 |
Departure
| Time | 2026-05-06 16:28 |
|---|---|
| Airport | Cristiano Ronaldo International Airport (LPMA) |
Arrival
| Time | N/A |
|---|---|
| Airport | Lisbon Humberto Delgado Airport (LPPT) |
| Time | Latitude | Longitude | Altitude | Speed | Heading |
|---|---|---|---|---|---|
| 2026-05-06 15:58 | 32.69440 | -16.77555 | 175 ft | 0 kts | 138° |
| 2026-05-06 16:18 | 32.69452 | -16.77568 | 175 ft | 2 kts | 139° |
| 2026-05-06 16:18 | 32.69465 | -16.77581 | 174 ft | 2 kts | 140° |
| 2026-05-06 16:18 | 32.69477 | -16.77593 | 173 ft | 2 kts | 145° |
| 2026-05-06 16:19 | 32.69492 | -16.77602 | 173 ft | 2 kts | 205° |
| 2026-05-06 16:19 | 32.69500 | -16.77597 | 173 ft | 0 kts | 227° |
| 2026-05-06 16:22 | 32.69482 | -16.77620 | 172 ft | 11 kts | 226° |
| 2026-05-06 16:22 | 32.69414 | -16.77701 | 169 ft | 15 kts | 226° |
| 2026-05-06 16:22 | 32.69344 | -16.77787 | 168 ft | 13 kts | 224° |
| 2026-05-06 16:23 | 32.69294 | -16.77866 | 167 ft | 3 kts | 253° |
| 2026-05-06 16:23 | 32.69293 | -16.77866 | 167 ft | 0 kts | 253° |
| 2026-05-06 16:26 | 32.69290 | -16.77882 | 167 ft | 7 kts | 255° |
| 2026-05-06 16:26 | 32.69289 | -16.77990 | 162 ft | 16 kts | 272° |
| 2026-05-06 16:27 | 32.69226 | -16.78100 | 160 ft | 24 kts | 225° |
| 2026-05-06 16:27 | 32.69091 | -16.78263 | 160 ft | 25 kts | 225° |
| 2026-05-06 16:27 | 32.68962 | -16.78391 | 156 ft | 22 kts | 196° |
| 2026-05-06 16:27 | 32.68908 | -16.78443 | 156 ft | 9 kts | 309° |
| 2026-05-06 16:28 | 32.69007 | -16.78355 | 158 ft | 43 kts | 45° |
| 2026-05-06 16:28 | 32.69429 | -16.77862 | 165 ft | 124 kts | 45° |
| 2026-05-06 16:28 | 32.70149 | -16.77022 | 576 ft | 153 kts | 44° |
| 2026-05-06 16:28 | 32.70753 | -16.75895 | 1220 ft | 174 kts | 72° |
| 2026-05-06 16:29 | 32.70720 | -16.74461 | 2118 ft | 181 kts | 103° |
| 2026-05-06 16:29 | 32.70308 | -16.73013 | 2615 ft | 193 kts | 105° |
| 2026-05-06 16:29 | 32.69836 | -16.71421 | 2902 ft | 214 kts | 106° |
| 2026-05-06 16:29 | 32.69324 | -16.69704 | 3256 ft | 235 kts | 107° |
| 2026-05-06 16:30 | 32.68752 | -16.67783 | 3717 ft | 256 kts | 107° |
| 2026-05-06 16:30 | 32.68344 | -16.66412 | 4247 ft | 263 kts | 108° |
| 2026-05-06 16:30 | 32.67519 | -16.63658 | 5362 ft | 271 kts | 108° |
| 2026-05-06 16:30 | 32.66879 | -16.61519 | 6164 ft | 278 kts | 108° |
| 2026-05-06 16:31 | 32.66227 | -16.59330 | 6952 ft | 284 kts | 108° |
| 2026-05-06 16:31 | 32.65761 | -16.57075 | 7722 ft | 287 kts | 92° |
| 2026-05-06 16:31 | 32.65941 | -16.54724 | 8532 ft | 287 kts | 71° |
| 2026-05-06 16:31 | 32.66778 | -16.52583 | 9349 ft | 287 kts | 52° |
| 2026-05-06 16:32 | 32.68128 | -16.50850 | 10166 ft | 287 kts | 41° |
| 2026-05-06 16:32 | 32.69613 | -16.49174 | 10581 ft | 305 kts | 41° |
| 2026-05-06 16:32 | 32.71214 | -16.47368 | 10810 ft | 329 kts | 41° |
| 2026-05-06 16:32 | 32.72926 | -16.45429 | 11074 ft | 348 kts | 41° |
| 2026-05-06 16:33 | 32.74676 | -16.43433 | 11631 ft | 356 kts | 41° |
| 2026-05-06 16:33 | 32.76448 | -16.41401 | 12276 ft | 361 kts | 41° |
| 2026-05-06 16:33 | 32.78268 | -16.39311 | 12944 ft | 366 kts | 41° |
| 2026-05-06 16:34 | 32.81978 | -16.35062 | 14221 ft | 376 kts | 41° |
| 2026-05-06 16:34 | 32.83875 | -16.32891 | 14817 ft | 379 kts | 41° |
| 2026-05-06 16:34 | 32.85785 | -16.30704 | 15397 ft | 384 kts | 41° |
| 2026-05-06 16:34 | 32.87694 | -16.28513 | 15986 ft | 387 kts | 41° |
| 2026-05-06 16:35 | 32.89643 | -16.26278 | 16564 ft | 391 kts | 41° |
| 2026-05-06 16:35 | 32.91614 | -16.24019 | 17131 ft | 395 kts | 41° |
| 2026-05-06 16:35 | 32.93606 | -16.21731 | 17669 ft | 399 kts | 41° |
| 2026-05-06 16:35 | 32.95616 | -16.19422 | 18238 ft | 403 kts | 41° |
| 2026-05-06 16:36 | 32.97642 | -16.17094 | 18723 ft | 407 kts | 41° |
| 2026-05-06 16:36 | 32.99686 | -16.14744 | 19219 ft | 409 kts | 41° |
| 2026-05-06 16:36 | 33.01745 | -16.12374 | 19701 ft | 412 kts | 41° |
| 2026-05-06 16:36 | 33.03784 | -16.10026 | 20194 ft | 415 kts | 41° |
| 2026-05-06 16:37 | 33.05862 | -16.07628 | 20674 ft | 417 kts | 41° |
| 2026-05-06 16:37 | 33.07954 | -16.05213 | 21138 ft | 420 kts | 41° |
| 2026-05-06 16:37 | 33.10060 | -16.02779 | 21593 ft | 423 kts | 41° |
| 2026-05-06 16:37 | 33.12180 | -16.00326 | 22046 ft | 426 kts | 41° |
| 2026-05-06 16:38 | 33.14314 | -15.97857 | 22489 ft | 429 kts | 41° |
| 2026-05-06 16:38 | 33.16461 | -15.95375 | 22928 ft | 432 kts | 41° |
| 2026-05-06 16:38 | 33.18628 | -15.92871 | 23357 ft | 435 kts | 40° |
| 2026-05-06 16:38 | 33.20071 | -15.91203 | 23640 ft | 437 kts | 40° |
| 2026-05-06 16:39 | 33.22259 | -15.88672 | 23993 ft | 439 kts | 41° |
| 2026-05-06 16:39 | 33.24463 | -15.86116 | 24343 ft | 442 kts | 41° |
| 2026-05-06 16:39 | 33.26672 | -15.83547 | 24689 ft | 444 kts | 41° |
| 2026-05-06 16:39 | 33.28892 | -15.80961 | 25037 ft | 447 kts | 41° |
| 2026-05-06 16:40 | 33.31118 | -15.78366 | 25394 ft | 449 kts | 41° |
| 2026-05-06 16:40 | 33.33359 | -15.75753 | 25742 ft | 451 kts | 41° |
| 2026-05-06 16:40 | 33.35615 | -15.73127 | 26081 ft | 453 kts | 40° |
| 2026-05-06 16:40 | 33.37880 | -15.70495 | 26414 ft | 455 kts | 40° |
| 2026-05-06 16:41 | 33.40158 | -15.67846 | 26760 ft | 457 kts | 40° |
| 2026-05-06 16:41 | 33.42444 | -15.65184 | 27080 ft | 459 kts | 40° |
| 2026-05-06 16:41 | 33.44756 | -15.62529 | 27387 ft | 461 kts | 40° |
| 2026-05-06 16:41 | 33.47099 | -15.59889 | 27684 ft | 463 kts | 39° |
| 2026-05-06 16:42 | 33.49432 | -15.57287 | 27985 ft | 465 kts | 39° |
| 2026-05-06 16:42 | 33.51841 | -15.54601 | 28282 ft | 467 kts | 39° |
| 2026-05-06 16:42 | 33.54197 | -15.51967 | 28561 ft | 470 kts | 39° |
| 2026-05-06 16:42 | 33.56560 | -15.49315 | 28839 ft | 472 kts | 40° |
| 2026-05-06 16:43 | 33.58959 | -15.46613 | 29119 ft | 474 kts | 40° |
| 2026-05-06 16:43 | 33.61365 | -15.43895 | 29444 ft | 475 kts | 40° |
| 2026-05-06 16:43 | 33.63762 | -15.41177 | 29845 ft | 474 kts | 40° |
| 2026-05-06 16:43 | 33.66154 | -15.38461 | 30240 ft | 473 kts | 40° |
| 2026-05-06 16:44 | 33.68551 | -15.35739 | 30582 ft | 472 kts | 40° |
| 2026-05-06 16:44 | 33.70936 | -15.33033 | 30913 ft | 472 kts | 40° |
| 2026-05-06 16:44 | 33.73322 | -15.30328 | 31218 ft | 472 kts | 40° |
| 2026-05-06 16:44 | 33.75682 | -15.27656 | 31530 ft | 472 kts | 40° |
| 2026-05-06 16:45 | 33.78072 | -15.24951 | 31853 ft | 471 kts | 40° |
| 2026-05-06 16:45 | 33.80453 | -15.22251 | 32183 ft | 471 kts | 40° |
| 2026-05-06 16:45 | 33.82832 | -15.19545 | 32494 ft | 471 kts | 40° |
| 2026-05-06 16:45 | 33.85213 | -15.16835 | 32811 ft | 471 kts | 40° |
| 2026-05-06 16:46 | 33.87593 | -15.14125 | 33124 ft | 470 kts | 40° |
| 2026-05-06 16:46 | 33.89969 | -15.11417 | 33454 ft | 470 kts | 40° |
| 2026-05-06 16:46 | 33.92341 | -15.08711 | 33758 ft | 470 kts | 40° |
| 2026-05-06 16:46 | 33.94708 | -15.06001 | 34074 ft | 470 kts | 40° |
| 2026-05-06 16:47 | 33.97072 | -15.03290 | 34358 ft | 469 kts | 40° |
| 2026-05-06 16:47 | 33.99436 | -15.00583 | 34633 ft | 469 kts | 40° |
| 2026-05-06 16:47 | 34.01806 | -14.97871 | 34896 ft | 468 kts | 40° |
| 2026-05-06 16:47 | 34.04169 | -14.95170 | 35160 ft | 468 kts | 40° |
| 2026-05-06 16:48 | 34.06532 | -14.92465 | 35417 ft | 468 kts | 40° |
| 2026-05-06 16:48 | 34.08890 | -14.89762 | 35668 ft | 467 kts | 40° |
| 2026-05-06 16:48 | 34.11243 | -14.87064 | 35899 ft | 467 kts | 40° |
| 2026-05-06 16:48 | 34.13568 | -14.84393 | 36054 ft | 468 kts | 40° |
| 2026-05-06 16:49 | 34.15931 | -14.81670 | 36091 ft | 469 kts | 40° |
| 2026-05-06 16:49 | 34.20650 | -14.76219 | 36090 ft | 470 kts | 40° |
| 2026-05-06 16:50 | 34.25388 | -14.70756 | 36085 ft | 470 kts | 40° |
| 2026-05-06 16:50 | 34.30127 | -14.65290 | 36085 ft | 471 kts | 40° |
| 2026-05-06 16:51 | 34.34826 | -14.59845 | 36083 ft | 471 kts | 40° |
| 2026-05-06 16:51 | 34.39550 | -14.54359 | 36081 ft | 471 kts | 40° |
| 2026-05-06 16:52 | 34.44285 | -14.48866 | 36076 ft | 471 kts | 40° |
| 2026-05-06 16:52 | 34.49027 | -14.43358 | 36072 ft | 471 kts | 40° |
| 2026-05-06 16:53 | 34.53753 | -14.37853 | 36073 ft | 471 kts | 41° |
| 2026-05-06 16:53 | 34.58486 | -14.32337 | 36066 ft | 472 kts | 41° |
| 2026-05-06 16:54 | 34.63196 | -14.26846 | 36070 ft | 472 kts | 41° |
| 2026-05-06 16:54 | 34.67936 | -14.21302 | 36062 ft | 473 kts | 41° |
| 2026-05-06 16:55 | 34.72657 | -14.15742 | 36065 ft | 473 kts | 41° |
| 2026-05-06 16:55 | 34.77394 | -14.10173 | 36064 ft | 473 kts | 41° |
| 2026-05-06 16:56 | 34.82138 | -14.04601 | 36069 ft | 474 kts | 41° |
| 2026-05-06 16:56 | 34.86880 | -13.99006 | 36067 ft | 474 kts | 41° |
| 2026-05-06 16:57 | 34.91583 | -13.93450 | 36058 ft | 475 kts | 41° |
| 2026-05-06 16:57 | 34.96332 | -13.87829 | 36066 ft | 475 kts | 41° |
| 2026-05-06 16:58 | 35.01074 | -13.82214 | 36065 ft | 475 kts | 41° |
| 2026-05-06 16:58 | 35.05822 | -13.76583 | 36067 ft | 476 kts | 41° |
| 2026-05-06 16:59 | 35.10575 | -13.70931 | 36062 ft | 476 kts | 41° |
| 2026-05-06 16:59 | 35.15295 | -13.65308 | 36059 ft | 477 kts | 41° |
| 2026-05-06 17:00 | 35.20042 | -13.59646 | 36064 ft | 477 kts | 41° |
| 2026-05-06 17:00 | 35.24792 | -13.53978 | 36062 ft | 477 kts | 42° |
| 2026-05-06 17:01 | 35.29543 | -13.48290 | 36060 ft | 478 kts | 42° |
| 2026-05-06 17:01 | 35.34298 | -13.42582 | 36058 ft | 478 kts | 42° |
| 2026-05-06 17:02 | 35.39052 | -13.36863 | 36063 ft | 479 kts | 42° |
| 2026-05-06 17:02 | 35.43818 | -13.31154 | 36163 ft | 479 kts | 41° |
| 2026-05-06 17:02 | 35.46226 | -13.28329 | 36282 ft | 479 kts | 41° |
| 2026-05-06 17:03 | 35.48657 | -13.25525 | 36429 ft | 479 kts | 40° |
| 2026-05-06 17:03 | 35.51070 | -13.22785 | 36608 ft | 479 kts | 40° |
| 2026-05-06 17:03 | 35.53532 | -13.20033 | 36801 ft | 478 kts | 39° |
| 2026-05-06 17:03 | 35.56011 | -13.17306 | 37027 ft | 477 kts | 39° |
| 2026-05-06 17:04 | 35.58499 | -13.14612 | 37267 ft | 476 kts | 38° |
| 2026-05-06 17:04 | 35.60997 | -13.11949 | 37540 ft | 474 kts | 38° |
| 2026-05-06 17:04 | 35.63498 | -13.09326 | 37832 ft | 472 kts | 37° |
| 2026-05-06 17:04 | 35.66011 | -13.06733 | 38153 ft | 468 kts | 37° |
| 2026-05-06 17:05 | 35.68514 | -13.04190 | 38495 ft | 465 kts | 36° |
| 2026-05-06 17:05 | 35.71015 | -13.01691 | 38836 ft | 460 kts | 36° |
| 2026-05-06 17:05 | 35.73503 | -12.99244 | 39120 ft | 455 kts | 35° |
| 2026-05-06 17:05 | 35.75945 | -12.96880 | 39431 ft | 450 kts | 35° |
| 2026-05-06 17:06 | 35.78405 | -12.94538 | 39758 ft | 444 kts | 34° |
| 2026-05-06 17:06 | 35.80846 | -12.92251 | 40098 ft | 438 kts | 34° |
| 2026-05-06 17:06 | 35.83265 | -12.90023 | 40447 ft | 431 kts | 33° |
| 2026-05-06 17:06 | 35.85666 | -12.87848 | 40811 ft | 423 kts | 33° |
| 2026-05-06 17:07 | 35.88032 | -12.85740 | 41171 ft | 415 kts | 32° |
| 2026-05-06 17:07 | 35.90362 | -12.83700 | 41530 ft | 406 kts | 31° |
| 2026-05-06 17:07 | 35.92655 | -12.81727 | 41899 ft | 397 kts | 31° |
| 2026-05-06 17:07 | 35.94882 | -12.79844 | 42194 ft | 389 kts | 30° |
| 2026-05-06 17:08 | 35.97126 | -12.77982 | 42218 ft | 389 kts | 30° |
| 2026-05-06 17:08 | 35.99410 | -12.76129 | 41964 ft | 397 kts | 29° |
| 2026-05-06 17:08 | 36.01756 | -12.74271 | 41798 ft | 402 kts | 28° |
| 2026-05-06 17:08 | 36.04115 | -12.72444 | 41942 ft | 398 kts | 28° |
| 2026-05-06 17:09 | 36.06452 | -12.70669 | 42215 ft | 390 kts | 27° |
| 2026-05-06 17:09 | 36.11124 | -12.67229 | 42123 ft | 394 kts | 26° |
| 2026-05-06 17:09 | 36.13496 | -12.65545 | 41951 ft | 399 kts | 26° |
| 2026-05-06 17:10 | 36.15918 | -12.63865 | 42009 ft | 397 kts | 25° |
| 2026-05-06 17:10 | 36.18327 | -12.62231 | 42223 ft | 392 kts | 24° |
| 2026-05-06 17:10 | 36.20718 | -12.60642 | 42342 ft | 389 kts | 24° |
| 2026-05-06 17:11 | 36.25580 | -12.57529 | 42077 ft | 397 kts | 22° |
| 2026-05-06 17:11 | 36.30490 | -12.54540 | 42240 ft | 392 kts | 21° |
| 2026-05-06 17:11 | 36.32942 | -12.53098 | 42381 ft | 388 kts | 21° |
| 2026-05-06 17:12 | 36.35401 | -12.51688 | 42327 ft | 390 kts | 20° |
| 2026-05-06 17:12 | 36.37890 | -12.50299 | 42186 ft | 394 kts | 19° |
| 2026-05-06 17:12 | 36.40410 | -12.48933 | 42149 ft | 395 kts | 19° |
| 2026-05-06 17:12 | 36.42929 | -12.47602 | 42276 ft | 391 kts | 18° |
| 2026-05-06 17:13 | 36.45431 | -12.46315 | 42399 ft | 388 kts | 18° |
| 2026-05-06 17:13 | 36.50467 | -12.43830 | 42275 ft | 392 kts | 17° |
| 2026-05-06 17:14 | 36.55581 | -12.41456 | 42312 ft | 390 kts | 15° |
| 2026-05-06 17:14 | 36.58099 | -12.40337 | 42416 ft | 387 kts | 15° |
| 2026-05-06 17:14 | 36.60645 | -12.39240 | 42427 ft | 387 kts | 14° |
| 2026-05-06 17:15 | 36.65789 | -12.37134 | 42298 ft | 390 kts | 13° |
| 2026-05-06 17:15 | 36.70946 | -12.35162 | 42395 ft | 381 kts | 12° |